sensor_id;sensor_type;location;lat;lon;timestamp;P1;durP1;ratioP1;P2;durP2;ratioP2
13234;SDS011;6683;48.506;9.050;2023-02-12T00:01:00;14.07;;;9.50;;
13234;SDS011;6683;48.506;9.050;2023-02-12T00:04:05;12.87;;;9.07;;
13234;SDS011;6683;48.506;9.050;2023-02-12T00:07:07;12.60;;;9.17;;
13234;SDS011;6683;48.506;9.050;2023-02-12T00:10:10;11.23;;;9.13;;
13234;SDS011;6683;48.506;9.050;2023-02-12T00:13:13;14.30;;;9.70;;
13234;SDS011;6683;48.506;9.050;2023-02-12T00:16:16;12.43;;;9.53;;
13234;SDS011;6683;48.506;9.050;2023-02-12T00:19:22;13.97;;;9.83;;
13234;SDS011;6683;48.506;9.050;2023-02-12T00:22:25;11.53;;;9.47;;
13234;SDS011;6683;48.506;9.050;2023-02-12T00:25:28;14.60;;;10.50;;
13234;SDS011;6683;48.506;9.050;2023-02-12T00:28:31;14.90;;;9.67;;
13234;SDS011;6683;48.506;9.050;2023-02-12T00:31:33;14.20;;;9.67;;
13234;SDS011;6683;48.506;9.050;2023-02-12T00:34:38;13.53;;;9.87;;
13234;SDS011;6683;48.506;9.050;2023-02-12T00:37:40;12.97;;;9.50;;
13234;SDS011;6683;48.506;9.050;2023-02-12T00:40:43;14.97;;;10.33;;
13234;SDS011;6683;48.506;9.050;2023-02-12T00:43:45;12.97;;;9.93;;
13234;SDS011;6683;48.506;9.050;2023-02-12T00:46:49;16.07;;;10.43;;
13234;SDS011;6683;48.506;9.050;2023-02-12T00:49:52;13.77;;;10.53;;
13234;SDS011;6683;48.506;9.050;2023-02-12T00:52:55;16.80;;;10.73;;
13234;SDS011;6683;48.506;9.050;2023-02-12T00:55:57;15.33;;;11.10;;
13234;SDS011;6683;48.506;9.050;2023-02-12T00:59:00;11.67;;;9.40;;
13234;SDS011;6683;48.506;9.050;2023-02-12T01:02:03;14.40;;;10.27;;
13234;SDS011;6683;48.506;9.050;2023-02-12T01:05:08;12.63;;;9.60;;
13234;SDS011;6683;48.506;9.050;2023-02-12T01:08:11;13.20;;;9.30;;
13234;SDS011;6683;48.506;9.050;2023-02-12T01:11:15;14.20;;;10.73;;
13234;SDS011;6683;48.506;9.050;2023-02-12T01:14:17;14.60;;;10.67;;
13234;SDS011;6683;48.506;9.050;2023-02-12T01:17:20;14.47;;;9.90;;
13234;SDS011;6683;48.506;9.050;2023-02-12T01:20:24;14.43;;;10.23;;
13234;SDS011;6683;48.506;9.050;2023-02-12T01:23:26;14.47;;;9.97;;
13234;SDS011;6683;48.506;9.050;2023-02-12T01:26:29;11.97;;;9.70;;
13234;SDS011;6683;48.506;9.050;2023-02-12T01:29:32;15.03;;;10.43;;
13234;SDS011;6683;48.506;9.050;2023-02-12T01:32:35;13.67;;;10.40;;
13234;SDS011;6683;48.506;9.050;2023-02-12T01:35:39;14.63;;;10.33;;
13234;SDS011;6683;48.506;9.050;2023-02-12T01:38:41;15.47;;;9.93;;
13234;SDS011;6683;48.506;9.050;2023-02-12T01:41:44;13.93;;;10.47;;
13234;SDS011;6683;48.506;9.050;2023-02-12T01:48:45;14.70;;;9.97;;
13234;SDS011;6683;48.506;9.050;2023-02-12T01:51:51;13.43;;;10.63;;
13234;SDS011;6683;48.506;9.050;2023-02-12T01:54:59;13.63;;;10.27;;
13234;SDS011;6683;48.506;9.050;2023-02-12T01:58:05;12.57;;;9.43;;
13234;SDS011;6683;48.506;9.050;2023-02-12T02:01:10;12.67;;;9.80;;
13234;SDS011;6683;48.506;9.050;2023-02-12T02:04:19;13.17;;;10.27;;
13234;SDS011;6683;48.506;9.050;2023-02-12T02:07:28;14.53;;;9.97;;
13234;SDS011;6683;48.506;9.050;2023-02-12T02:10:30;12.73;;;9.53;;
13234;SDS011;6683;48.506;9.050;2023-02-12T02:13:33;13.87;;;10.10;;
13234;SDS011;6683;48.506;9.050;2023-02-12T02:16:56;13.57;;;9.40;;
13234;SDS011;6683;48.506;9.050;2023-02-12T02:20:34;14.03;;;9.90;;
13234;SDS011;6683;48.506;9.050;2023-02-12T02:24:01;16.07;;;10.33;;
13234;SDS011;6683;48.506;9.050;2023-02-12T02:27:34;13.73;;;10.00;;
13234;SDS011;6683;48.506;9.050;2023-02-12T02:30:49;13.77;;;10.27;;
13234;SDS011;6683;48.506;9.050;2023-02-12T02:33:58;15.07;;;9.43;;
13234;SDS011;6683;48.506;9.050;2023-02-12T02:37:11;14.23;;;9.67;;
13234;SDS011;6683;48.506;9.050;2023-02-12T02:40:18;14.17;;;9.90;;
13234;SDS011;6683;48.506;9.050;2023-02-12T02:43:26;13.87;;;9.77;;
13234;SDS011;6683;48.506;9.050;2023-02-12T02:46:35;13.80;;;10.07;;
13234;SDS011;6683;48.506;9.050;2023-02-12T02:49:44;13.53;;;10.37;;
13234;SDS011;6683;48.506;9.050;2023-02-12T02:52:52;13.67;;;10.30;;
13234;SDS011;6683;48.506;9.050;2023-02-12T02:56:00;16.90;;;10.07;;
13234;SDS011;6683;48.506;9.050;2023-02-12T02:59:07;13.60;;;10.07;;
13234;SDS011;6683;48.506;9.050;2023-02-12T03:02:16;12.67;;;9.60;;
13234;SDS011;6683;48.506;9.050;2023-02-12T03:05:27;13.63;;;10.47;;
13234;SDS011;6683;48.506;9.050;2023-02-12T03:08:38;16.77;;;10.83;;
13234;SDS011;6683;48.506;9.050;2023-02-12T03:11:49;13.87;;;10.10;;
13234;SDS011;6683;48.506;9.050;2023-02-12T03:14:57;15.00;;;10.77;;
13234;SDS011;6683;48.506;9.050;2023-02-12T03:18:10;13.33;;;10.73;;
13234;SDS011;6683;48.506;9.050;2023-02-12T03:21:21;13.73;;;9.80;;
13234;SDS011;6683;48.506;9.050;2023-02-12T03:24:32;14.77;;;10.80;;
13234;SDS011;6683;48.506;9.050;2023-02-12T03:27:40;13.63;;;10.37;;
13234;SDS011;6683;48.506;9.050;2023-02-12T03:30:48;13.37;;;9.83;;
13234;SDS011;6683;48.506;9.050;2023-02-12T03:34:03;14.77;;;10.47;;
13234;SDS011;6683;48.506;9.050;2023-02-12T03:37:11;12.40;;;9.37;;
13234;SDS011;6683;48.506;9.050;2023-02-12T03:40:20;12.13;;;9.60;;
13234;SDS011;6683;48.506;9.050;2023-02-12T03:43:30;11.97;;;9.77;;
13234;SDS011;6683;48.506;9.050;2023-02-12T03:46:44;12.47;;;9.40;;
13234;SDS011;6683;48.506;9.050;2023-02-12T03:49:58;13.83;;;10.20;;
13234;SDS011;6683;48.506;9.050;2023-02-12T03:53:10;12.63;;;9.17;;
13234;SDS011;6683;48.506;9.050;2023-02-12T03:56:14;12.40;;;9.50;;
13234;SDS011;6683;48.506;9.050;2023-02-12T03:59:21;11.63;;;9.27;;
13234;SDS011;6683;48.506;9.050;2023-02-12T04:02:25;11.40;;;9.47;;
13234;SDS011;6683;48.506;9.050;2023-02-12T04:05:30;11.77;;;9.30;;
13234;SDS011;6683;48.506;9.050;2023-02-12T04:08:32;13.93;;;9.47;;
13234;SDS011;6683;48.506;9.050;2023-02-12T04:11:38;13.83;;;9.93;;
13234;SDS011;6683;48.506;9.050;2023-02-12T04:14:54;11.83;;;9.33;;
13234;SDS011;6683;48.506;9.050;2023-02-12T04:18:13;12.57;;;9.00;;
13234;SDS011;6683;48.506;9.050;2023-02-12T04:21:23;13.17;;;10.17;;
13234;SDS011;6683;48.506;9.050;2023-02-12T04:24:45;12.07;;;8.77;;
13234;SDS011;6683;48.506;9.050;2023-02-12T04:28:04;10.60;;;8.63;;
13234;SDS011;6683;48.506;9.050;2023-02-12T04:31:16;11.87;;;9.20;;
13234;SDS011;6683;48.506;9.050;2023-02-12T04:34:26;13.17;;;8.97;;
13234;SDS011;6683;48.506;9.050;2023-02-12T04:37:36;10.53;;;8.63;;
13234;SDS011;6683;48.506;9.050;2023-02-12T04:40:43;11.80;;;8.53;;
13234;SDS011;6683;48.506;9.050;2023-02-12T04:43:46;11.53;;;8.57;;
13234;SDS011;6683;48.506;9.050;2023-02-12T04:46:49;9.03;;;7.70;;
13234;SDS011;6683;48.506;9.050;2023-02-12T04:49:52;10.17;;;8.23;;
13234;SDS011;6683;48.506;9.050;2023-02-12T04:52:56;11.53;;;9.00;;
13234;SDS011;6683;48.506;9.050;2023-02-12T04:55:58;11.83;;;8.27;;
13234;SDS011;6683;48.506;9.050;2023-02-12T04:59:01;11.80;;;8.60;;
13234;SDS011;6683;48.506;9.050;2023-02-12T05:02:03;13.60;;;9.30;;
13234;SDS011;6683;48.506;9.050;2023-02-12T05:05:06;11.47;;;8.30;;
13234;SDS011;6683;48.506;9.050;2023-02-12T05:08:10;12.87;;;9.53;;
13234;SDS011;6683;48.506;9.050;2023-02-12T05:11:12;13.43;;;9.37;;
13234;SDS011;6683;48.506;9.050;2023-02-12T05:14:15;14.47;;;9.73;;
13234;SDS011;6683;48.506;9.050;2023-02-12T05:17:17;13.23;;;8.90;;
13234;SDS011;6683;48.506;9.050;2023-02-12T05:20:21;12.97;;;9.73;;
13234;SDS011;6683;48.506;9.050;2023-02-12T05:23:26;11.73;;;9.33;;
13234;SDS011;6683;48.506;9.050;2023-02-12T05:26:29;12.80;;;9.60;;
13234;SDS011;6683;48.506;9.050;2023-02-12T05:29:31;11.93;;;9.40;;
13234;SDS011;6683;48.506;9.050;2023-02-12T05:32:34;14.67;;;9.60;;
13234;SDS011;6683;48.506;9.050;2023-02-12T05:35:36;12.67;;;9.33;;
13234;SDS011;6683;48.506;9.050;2023-02-12T05:38:40;13.00;;;9.97;;
13234;SDS011;6683;48.506;9.050;2023-02-12T05:41:42;13.40;;;9.33;;
13234;SDS011;6683;48.506;9.050;2023-02-12T05:44:45;12.63;;;9.07;;
13234;SDS011;6683;48.506;9.050;2023-02-12T05:47:48;14.00;;;9.13;;
13234;SDS011;6683;48.506;9.050;2023-02-12T05:50:50;11.80;;;8.33;;
13234;SDS011;6683;48.506;9.050;2023-02-12T05:53:56;10.47;;;8.70;;
13234;SDS011;6683;48.506;9.050;2023-02-12T05:57:02;10.50;;;8.90;;
13234;SDS011;6683;48.506;9.050;2023-02-12T06:00:07;9.70;;;8.07;;
13234;SDS011;6683;48.506;9.050;2023-02-12T06:03:11;12.60;;;8.63;;
13234;SDS011;6683;48.506;9.050;2023-02-12T06:06:13;12.00;;;8.87;;
13234;SDS011;6683;48.506;9.050;2023-02-12T06:09:17;10.40;;;8.00;;
13234;SDS011;6683;48.506;9.050;2023-02-12T06:12:19;10.50;;;8.37;;
13234;SDS011;6683;48.506;9.050;2023-02-12T06:15:22;11.07;;;8.23;;
13234;SDS011;6683;48.506;9.050;2023-02-12T06:18:24;10.53;;;8.87;;
13234;SDS011;6683;48.506;9.050;2023-02-12T06:21:27;11.80;;;9.03;;
13234;SDS011;6683;48.506;9.050;2023-02-12T06:24:32;14.20;;;9.90;;
13234;SDS011;6683;48.506;9.050;2023-02-12T06:27:36;13.27;;;9.43;;
13234;SDS011;6683;48.506;9.050;2023-02-12T06:30:38;10.73;;;8.73;;
13234;SDS011;6683;48.506;9.050;2023-02-12T06:33:40;12.97;;;9.00;;
13234;SDS011;6683;48.506;9.050;2023-02-12T06:36:43;12.47;;;8.97;;
13234;SDS011;6683;48.506;9.050;2023-02-12T06:39:48;10.87;;;8.40;;
13234;SDS011;6683;48.506;9.050;2023-02-12T06:42:50;11.20;;;9.10;;
13234;SDS011;6683;48.506;9.050;2023-02-12T06:45:53;12.77;;;9.33;;
13234;SDS011;6683;48.506;9.050;2023-02-12T06:48:55;15.23;;;9.43;;
13234;SDS011;6683;48.506;9.050;2023-02-12T06:52:00;13.07;;;9.47;;
13234;SDS011;6683;48.506;9.050;2023-02-12T06:55:03;11.93;;;9.80;;
13234;SDS011;6683;48.506;9.050;2023-02-12T06:58:06;15.57;;;10.57;;
13234;SDS011;6683;48.506;9.050;2023-02-12T07:01:09;12.17;;;9.37;;
13234;SDS011;6683;48.506;9.050;2023-02-12T07:04:16;12.00;;;9.53;;
13234;SDS011;6683;48.506;9.050;2023-02-12T07:07:19;13.27;;;9.80;;
13234;SDS011;6683;48.506;9.050;2023-02-12T07:10:23;12.97;;;10.17;;
13234;SDS011;6683;48.506;9.050;2023-02-12T07:13:26;14.27;;;9.90;;
13234;SDS011;6683;48.506;9.050;2023-02-12T07:16:28;14.37;;;10.40;;
13234;SDS011;6683;48.506;9.050;2023-02-12T07:19:30;14.03;;;10.37;;
13234;SDS011;6683;48.506;9.050;2023-02-12T07:22:34;12.77;;;10.57;;
13234;SDS011;6683;48.506;9.050;2023-02-12T07:25:38;14.90;;;10.63;;
13234;SDS011;6683;48.506;9.050;2023-02-12T07:28:41;16.03;;;11.00;;
13234;SDS011;6683;48.506;9.050;2023-02-12T07:31:43;14.80;;;10.63;;
13234;SDS011;6683;48.506;9.050;2023-02-12T07:34:46;13.43;;;9.57;;
13234;SDS011;6683;48.506;9.050;2023-02-12T07:37:49;13.17;;;9.70;;
13234;SDS011;6683;48.506;9.050;2023-02-12T07:40:53;13.83;;;9.93;;
13234;SDS011;6683;48.506;9.050;2023-02-12T07:43:58;12.00;;;8.87;;
13234;SDS011;6683;48.506;9.050;2023-02-12T07:47:02;11.27;;;8.87;;
13234;SDS011;6683;48.506;9.050;2023-02-12T07:50:05;11.57;;;8.67;;
13234;SDS011;6683;48.506;9.050;2023-02-12T07:53:08;12.37;;;9.20;;
13234;SDS011;6683;48.506;9.050;2023-02-12T07:56:13;11.67;;;8.90;;
13234;SDS011;6683;48.506;9.050;2023-02-12T07:59:18;11.77;;;9.47;;
13234;SDS011;6683;48.506;9.050;2023-02-12T08:02:20;11.33;;;9.33;;
13234;SDS011;6683;48.506;9.050;2023-02-12T08:05:24;12.77;;;9.87;;
13234;SDS011;6683;48.506;9.050;2023-02-12T08:08:28;11.60;;;8.93;;
13234;SDS011;6683;48.506;9.050;2023-02-12T08:11:32;13.47;;;10.50;;
13234;SDS011;6683;48.506;9.050;2023-02-12T08:14:35;13.70;;;10.53;;
13234;SDS011;6683;48.506;9.050;2023-02-12T08:17:37;14.13;;;10.93;;
13234;SDS011;6683;48.506;9.050;2023-02-12T08:20:42;16.63;;;11.10;;
13234;SDS011;6683;48.506;9.050;2023-02-12T08:23:44;13.93;;;10.97;;
13234;SDS011;6683;48.506;9.050;2023-02-12T08:26:51;14.03;;;10.77;;
13234;SDS011;6683;48.506;9.050;2023-02-12T08:29:54;15.73;;;11.53;;
13234;SDS011;6683;48.506;9.050;2023-02-12T08:32:56;14.73;;;11.57;;
13234;SDS011;6683;48.506;9.050;2023-02-12T08:36:00;15.33;;;11.37;;
13234;SDS011;6683;48.506;9.050;2023-02-12T08:39:04;14.63;;;11.80;;
13234;SDS011;6683;48.506;9.050;2023-02-12T08:42:09;17.53;;;12.00;;
13234;SDS011;6683;48.506;9.050;2023-02-12T08:45:11;14.87;;;11.47;;
13234;SDS011;6683;48.506;9.050;2023-02-12T08:48:14;14.87;;;12.00;;
13234;SDS011;6683;48.506;9.050;2023-02-12T08:51:20;15.73;;;11.87;;
13234;SDS011;6683;48.506;9.050;2023-02-12T08:54:25;13.00;;;10.67;;
13234;SDS011;6683;48.506;9.050;2023-02-12T08:57:31;15.07;;;12.30;;
13234;SDS011;6683;48.506;9.050;2023-02-12T09:00:34;17.33;;;12.50;;
13234;SDS011;6683;48.506;9.050;2023-02-12T09:03:37;15.07;;;11.77;;
13234;SDS011;6683;48.506;9.050;2023-02-12T09:06:39;14.47;;;12.03;;
13234;SDS011;6683;48.506;9.050;2023-02-12T09:09:42;15.97;;;11.83;;
13234;SDS011;6683;48.506;9.050;2023-02-12T09:12:46;17.63;;;12.93;;
13234;SDS011;6683;48.506;9.050;2023-02-12T09:15:48;18.90;;;13.53;;
13234;SDS011;6683;48.506;9.050;2023-02-12T09:18:51;18.07;;;13.40;;
13234;SDS011;6683;48.506;9.050;2023-02-12T09:21:54;18.00;;;14.57;;
13234;SDS011;6683;48.506;9.050;2023-02-12T09:24:57;18.97;;;14.17;;
13234;SDS011;6683;48.506;9.050;2023-02-12T09:28:01;19.40;;;14.60;;
13234;SDS011;6683;48.506;9.050;2023-02-12T09:31:04;20.33;;;14.43;;
13234;SDS011;6683;48.506;9.050;2023-02-12T09:34:07;19.03;;;15.33;;
13234;SDS011;6683;48.506;9.050;2023-02-12T09:37:10;19.97;;;14.90;;
13234;SDS011;6683;48.506;9.050;2023-02-12T09:40:16;20.33;;;14.37;;
13234;SDS011;6683;48.506;9.050;2023-02-12T09:43:25;17.37;;;14.13;;
13234;SDS011;6683;48.506;9.050;2023-02-12T09:46:38;21.40;;;14.60;;
13234;SDS011;6683;48.506;9.050;2023-02-12T09:49:53;17.73;;;13.03;;
13234;SDS011;6683;48.506;9.050;2023-02-12T09:53:11;15.37;;;12.70;;
13234;SDS011;6683;48.506;9.050;2023-02-12T09:56:19;16.00;;;12.07;;
13234;SDS011;6683;48.506;9.050;2023-02-12T09:59:27;14.27;;;12.60;;
13234;SDS011;6683;48.506;9.050;2023-02-12T10:02:34;14.93;;;12.10;;
13234;SDS011;6683;48.506;9.050;2023-02-12T10:05:39;16.07;;;12.83;;
13234;SDS011;6683;48.506;9.050;2023-02-12T10:08:48;15.73;;;11.63;;
13234;SDS011;6683;48.506;9.050;2023-02-12T10:12:12;15.90;;;11.50;;
13234;SDS011;6683;48.506;9.050;2023-02-12T10:15:28;13.93;;;10.63;;
13234;SDS011;6683;48.506;9.050;2023-02-12T10:18:50;13.10;;;10.23;;
13234;SDS011;6683;48.506;9.050;2023-02-12T10:22:12;12.83;;;10.87;;
13234;SDS011;6683;48.506;9.050;2023-02-12T10:25:27;12.77;;;10.50;;
13234;SDS011;6683;48.506;9.050;2023-02-12T10:28:37;12.47;;;9.63;;
13234;SDS011;6683;48.506;9.050;2023-02-12T10:31:44;16.60;;;10.90;;
13234;SDS011;6683;48.506;9.050;2023-02-12T10:34:51;11.97;;;10.73;;
13234;SDS011;6683;48.506;9.050;2023-02-12T10:37:56;12.57;;;9.47;;
13234;SDS011;6683;48.506;9.050;2023-02-12T10:41:05;10.27;;;9.17;;
13234;SDS011;6683;48.506;9.050;2023-02-12T10:44:09;9.87;;;8.77;;
13234;SDS011;6683;48.506;9.050;2023-02-12T10:47:14;11.00;;;7.57;;
13234;SDS011;6683;48.506;9.050;2023-02-12T10:50:23;9.33;;;7.13;;
13234;SDS011;6683;48.506;9.050;2023-02-12T10:53:37;7.70;;;6.30;;
13234;SDS011;6683;48.506;9.050;2023-02-12T10:56:41;6.90;;;5.60;;
13234;SDS011;6683;48.506;9.050;2023-02-12T11:04:17;8.03;;;4.97;;
13234;SDS011;6683;48.506;9.050;2023-02-12T11:07:27;6.57;;;4.53;;
13234;SDS011;6683;48.506;9.050;2023-02-12T11:10:46;6.33;;;4.50;;
13234;SDS011;6683;48.506;9.050;2023-02-12T11:13:52;7.20;;;4.83;;
13234;SDS011;6683;48.506;9.050;2023-02-12T11:16:58;5.93;;;4.63;;
13234;SDS011;6683;48.506;9.050;2023-02-12T11:23:27;6.97;;;4.43;;
13234;SDS011;6683;48.506;9.050;2023-02-12T11:26:32;9.03;;;5.00;;
13234;SDS011;6683;48.506;9.050;2023-02-12T11:29:35;9.70;;;5.47;;
13234;SDS011;6683;48.506;9.050;2023-02-12T11:32:37;8.17;;;5.13;;
13234;SDS011;6683;48.506;9.050;2023-02-12T11:35:48;5.97;;;5.07;;
13234;SDS011;6683;48.506;9.050;2023-02-12T11:38:54;7.50;;;4.87;;
13234;SDS011;6683;48.506;9.050;2023-02-12T11:41:59;6.23;;;4.77;;
13234;SDS011;6683;48.506;9.050;2023-02-12T11:45:04;6.70;;;4.83;;
13234;SDS011;6683;48.506;9.050;2023-02-12T11:48:09;7.57;;;4.90;;
13234;SDS011;6683;48.506;9.050;2023-02-12T11:51:21;5.53;;;4.30;;
13234;SDS011;6683;48.506;9.050;2023-02-12T11:54:29;5.47;;;4.40;;
13234;SDS011;6683;48.506;9.050;2023-02-12T11:57:42;5.87;;;3.73;;
13234;SDS011;6683;48.506;9.050;2023-02-12T12:00:48;7.17;;;4.13;;
13234;SDS011;6683;48.506;9.050;2023-02-12T12:03:57;7.10;;;4.33;;
13234;SDS011;6683;48.506;9.050;2023-02-12T12:07:08;9.20;;;4.40;;
13234;SDS011;6683;48.506;9.050;2023-02-12T12:10:19;4.17;;;3.23;;
13234;SDS011;6683;48.506;9.050;2023-02-12T12:13:30;4.77;;;3.83;;
13234;SDS011;6683;48.506;9.050;2023-02-12T12:16:40;5.50;;;3.80;;
13234;SDS011;6683;48.506;9.050;2023-02-12T12:20:09;8.70;;;4.67;;
13234;SDS011;6683;48.506;9.050;2023-02-12T12:23:17;5.30;;;3.50;;
13234;SDS011;6683;48.506;9.050;2023-02-12T12:26:26;4.30;;;3.70;;
13234;SDS011;6683;48.506;9.050;2023-02-12T12:29:32;4.40;;;3.80;;
13234;SDS011;6683;48.506;9.050;2023-02-12T12:32:47;5.80;;;4.63;;
13234;SDS011;6683;48.506;9.050;2023-02-12T12:35:58;5.50;;;4.23;;
13234;SDS011;6683;48.506;9.050;2023-02-12T12:39:33;5.83;;;4.10;;
13234;SDS011;6683;48.506;9.050;2023-02-12T12:46:21;4.47;;;4.07;;
13234;SDS011;6683;48.506;9.050;2023-02-12T12:49:46;4.30;;;3.90;;
13234;SDS011;6683;48.506;9.050;2023-02-12T12:53:10;4.23;;;3.50;;
13234;SDS011;6683;48.506;9.050;2023-02-12T12:56:36;4.47;;;4.07;;
13234;SDS011;6683;48.506;9.050;2023-02-12T12:59:54;6.30;;;3.93;;
13234;SDS011;6683;48.506;9.050;2023-02-12T13:03:36;5.43;;;3.97;;
13234;SDS011;6683;48.506;9.050;2023-02-12T13:07:12;4.20;;;3.70;;
13234;SDS011;6683;48.506;9.050;2023-02-12T13:10:30;3.57;;;3.20;;
13234;SDS011;6683;48.506;9.050;2023-02-12T13:13:40;4.70;;;4.07;;
13234;SDS011;6683;48.506;9.050;2023-02-12T13:16:47;4.40;;;3.70;;
13234;SDS011;6683;48.506;9.050;2023-02-12T13:19:56;3.93;;;3.17;;
13234;SDS011;6683;48.506;9.050;2023-02-12T13:23:09;5.43;;;2.93;;
13234;SDS011;6683;48.506;9.050;2023-02-12T13:26:29;2.70;;;2.50;;
13234;SDS011;6683;48.506;9.050;2023-02-12T13:29:45;4.70;;;2.80;;
13234;SDS011;6683;48.506;9.050;2023-02-12T13:32:55;3.37;;;2.57;;
13234;SDS011;6683;48.506;9.050;2023-02-12T13:36:07;3.23;;;2.43;;
13234;SDS011;6683;48.506;9.050;2023-02-12T13:39:15;4.57;;;2.97;;
13234;SDS011;6683;48.506;9.050;2023-02-12T13:42:33;3.03;;;2.70;;
13234;SDS011;6683;48.506;9.050;2023-02-12T13:45:47;3.80;;;3.20;;
13234;SDS011;6683;48.506;9.050;2023-02-12T13:48:59;3.37;;;2.33;;
13234;SDS011;6683;48.506;9.050;2023-02-12T13:52:16;3.13;;;2.83;;
13234;SDS011;6683;48.506;9.050;2023-02-12T13:55:30;3.03;;;2.50;;
13234;SDS011;6683;48.506;9.050;2023-02-12T13:58:49;4.00;;;3.10;;
13234;SDS011;6683;48.506;9.050;2023-02-12T14:01:54;3.53;;;3.00;;
13234;SDS011;6683;48.506;9.050;2023-02-12T14:04:57;3.37;;;2.80;;
13234;SDS011;6683;48.506;9.050;2023-02-12T14:08:02;6.57;;;3.37;;
13234;SDS011;6683;48.506;9.050;2023-02-12T14:11:07;4.40;;;3.07;;
13234;SDS011;6683;48.506;9.050;2023-02-12T14:14:12;3.03;;;2.67;;
13234;SDS011;6683;48.506;9.050;2023-02-12T14:17:49;3.73;;;2.70;;
13234;SDS011;6683;48.506;9.050;2023-02-12T14:24:47;2.53;;;2.20;;
13234;SDS011;6683;48.506;9.050;2023-02-12T14:27:53;3.97;;;2.60;;
13234;SDS011;6683;48.506;9.050;2023-02-12T14:34:43;3.40;;;2.60;;
13234;SDS011;6683;48.506;9.050;2023-02-12T14:37:45;3.30;;;2.53;;
13234;SDS011;6683;48.506;9.050;2023-02-12T14:40:48;4.20;;;2.97;;
13234;SDS011;6683;48.506;9.050;2023-02-12T14:43:51;2.97;;;2.67;;
13234;SDS011;6683;48.506;9.050;2023-02-12T14:47:48;4.60;;;2.60;;
13234;SDS011;6683;48.506;9.050;2023-02-12T14:50:53;4.70;;;2.67;;
13234;SDS011;6683;48.506;9.050;2023-02-12T14:53:56;5.03;;;2.90;;
13234;SDS011;6683;48.506;9.050;2023-02-12T14:57:02;5.13;;;3.77;;
13234;SDS011;6683;48.506;9.050;2023-02-12T15:00:17;2.70;;;2.40;;
13234;SDS011;6683;48.506;9.050;2023-02-12T15:03:28;4.30;;;2.90;;
13234;SDS011;6683;48.506;9.050;2023-02-12T15:06:42;3.57;;;2.63;;
13234;SDS011;6683;48.506;9.050;2023-02-12T15:09:52;3.63;;;2.53;;
13234;SDS011;6683;48.506;9.050;2023-02-12T15:13:07;3.23;;;2.60;;
13234;SDS011;6683;48.506;9.050;2023-02-12T15:16:26;5.73;;;3.10;;
13234;SDS011;6683;48.506;9.050;2023-02-12T15:19:37;4.40;;;2.67;;
13234;SDS011;6683;48.506;9.050;2023-02-12T15:22:46;5.67;;;3.00;;
13234;SDS011;6683;48.506;9.050;2023-02-12T15:25:48;3.47;;;2.80;;
13234;SDS011;6683;48.506;9.050;2023-02-12T15:28:51;3.07;;;2.70;;
13234;SDS011;6683;48.506;9.050;2023-02-12T15:31:54;2.87;;;2.50;;
13234;SDS011;6683;48.506;9.050;2023-02-12T15:34:59;4.57;;;2.50;;
13234;SDS011;6683;48.506;9.050;2023-02-12T15:38:04;3.40;;;2.53;;
13234;SDS011;6683;48.506;9.050;2023-02-12T15:41:22;2.97;;;2.67;;
13234;SDS011;6683;48.506;9.050;2023-02-12T15:44:28;2.83;;;2.53;;
13234;SDS011;6683;48.506;9.050;2023-02-12T15:47:34;3.20;;;2.60;;
13234;SDS011;6683;48.506;9.050;2023-02-12T15:50:43;3.53;;;2.27;;
13234;SDS011;6683;48.506;9.050;2023-02-12T15:53:53;3.10;;;2.47;;
13234;SDS011;6683;48.506;9.050;2023-02-12T15:56:56;3.17;;;2.87;;
13234;SDS011;6683;48.506;9.050;2023-02-12T16:00:02;3.00;;;2.70;;
13234;SDS011;6683;48.506;9.050;2023-02-12T16:03:17;3.17;;;2.37;;
13234;SDS011;6683;48.506;9.050;2023-02-12T16:06:23;5.33;;;2.50;;
13234;SDS011;6683;48.506;9.050;2023-02-12T16:09:29;3.53;;;2.43;;
13234;SDS011;6683;48.506;9.050;2023-02-12T16:12:35;2.90;;;2.40;;
13234;SDS011;6683;48.506;9.050;2023-02-12T16:15:40;2.80;;;2.20;;
13234;SDS011;6683;48.506;9.050;2023-02-12T16:18:42;3.00;;;2.70;;
13234;SDS011;6683;48.506;9.050;2023-02-12T16:21:46;3.07;;;2.77;;
13234;SDS011;6683;48.506;9.050;2023-02-12T16:24:53;3.23;;;2.70;;
13234;SDS011;6683;48.506;9.050;2023-02-12T16:27:57;4.13;;;2.83;;
13234;SDS011;6683;48.506;9.050;2023-02-12T16:31:08;3.17;;;2.70;;
13234;SDS011;6683;48.506;9.050;2023-02-12T16:34:25;3.43;;;3.00;;
13234;SDS011;6683;48.506;9.050;2023-02-12T16:37:43;4.97;;;3.57;;
13234;SDS011;6683;48.506;9.050;2023-02-12T16:41:08;3.93;;;3.27;;
13234;SDS011;6683;48.506;9.050;2023-02-12T16:44:25;4.57;;;3.03;;
13234;SDS011;6683;48.506;9.050;2023-02-12T16:47:30;5.00;;;3.63;;
13234;SDS011;6683;48.506;9.050;2023-02-12T16:50:33;3.67;;;3.27;;
13234;SDS011;6683;48.506;9.050;2023-02-12T16:53:39;3.47;;;2.83;;
13234;SDS011;6683;48.506;9.050;2023-02-12T16:56:47;3.77;;;2.50;;
13234;SDS011;6683;48.506;9.050;2023-02-12T16:59:49;4.07;;;2.80;;
13234;SDS011;6683;48.506;9.050;2023-02-12T17:02:52;3.47;;;2.60;;
13234;SDS011;6683;48.506;9.050;2023-02-12T17:05:55;4.47;;;2.60;;
13234;SDS011;6683;48.506;9.050;2023-02-12T17:08:58;3.67;;;2.90;;
13234;SDS011;6683;48.506;9.050;2023-02-12T17:12:02;4.03;;;3.37;;
13234;SDS011;6683;48.506;9.050;2023-02-12T17:15:06;3.70;;;3.40;;
13234;SDS011;6683;48.506;9.050;2023-02-12T17:18:10;3.77;;;2.50;;
13234;SDS011;6683;48.506;9.050;2023-02-12T17:21:14;3.93;;;3.53;;
13234;SDS011;6683;48.506;9.050;2023-02-12T17:24:24;3.67;;;3.30;;
13234;SDS011;6683;48.506;9.050;2023-02-12T17:27:30;6.70;;;5.20;;
13234;SDS011;6683;48.506;9.050;2023-02-12T17:30:33;6.70;;;5.07;;
13234;SDS011;6683;48.506;9.050;2023-02-12T17:33:36;5.03;;;3.73;;
13234;SDS011;6683;48.506;9.050;2023-02-12T17:36:39;5.03;;;3.27;;
13234;SDS011;6683;48.506;9.050;2023-02-12T17:39:42;3.27;;;2.70;;
13234;SDS011;6683;48.506;9.050;2023-02-12T17:42:46;4.20;;;2.73;;
13234;SDS011;6683;48.506;9.050;2023-02-12T17:45:49;3.23;;;2.93;;
13234;SDS011;6683;48.506;9.050;2023-02-12T17:48:52;4.90;;;3.90;;
13234;SDS011;6683;48.506;9.050;2023-02-12T17:51:55;11.80;;;6.90;;
13234;SDS011;6683;48.506;9.050;2023-02-12T17:54:58;13.80;;;7.83;;
13234;SDS011;6683;48.506;9.050;2023-02-12T17:58:02;11.23;;;6.83;;
13234;SDS011;6683;48.506;9.050;2023-02-12T18:01:04;8.07;;;4.90;;
13234;SDS011;6683;48.506;9.050;2023-02-12T18:04:09;4.97;;;4.17;;
13234;SDS011;6683;48.506;9.050;2023-02-12T18:07:12;6.03;;;4.37;;
13234;SDS011;6683;48.506;9.050;2023-02-12T18:10:14;5.03;;;4.10;;
13234;SDS011;6683;48.506;9.050;2023-02-12T18:13:18;4.83;;;3.87;;
13234;SDS011;6683;48.506;9.050;2023-02-12T18:16:21;5.87;;;4.20;;
13234;SDS011;6683;48.506;9.050;2023-02-12T18:19:25;6.43;;;4.00;;
13234;SDS011;6683;48.506;9.050;2023-02-12T18:22:28;5.70;;;3.97;;
13234;SDS011;6683;48.506;9.050;2023-02-12T18:25:32;6.13;;;4.57;;
13234;SDS011;6683;48.506;9.050;2023-02-12T18:28:36;6.67;;;4.73;;
13234;SDS011;6683;48.506;9.050;2023-02-12T18:31:39;7.57;;;4.93;;
13234;SDS011;6683;48.506;9.050;2023-02-12T18:34:42;6.73;;;4.97;;
13234;SDS011;6683;48.506;9.050;2023-02-12T18:37:44;7.37;;;4.33;;
13234;SDS011;6683;48.506;9.050;2023-02-12T18:40:47;6.70;;;4.77;;
13234;SDS011;6683;48.506;9.050;2023-02-12T18:43:51;5.60;;;3.93;;
13234;SDS011;6683;48.506;9.050;2023-02-12T18:46:54;11.60;;;6.87;;
13234;SDS011;6683;48.506;9.050;2023-02-12T18:49:58;11.10;;;7.33;;
13234;SDS011;6683;48.506;9.050;2023-02-12T18:53:02;6.67;;;4.50;;
13234;SDS011;6683;48.506;9.050;2023-02-12T18:56:05;6.53;;;3.67;;
13234;SDS011;6683;48.506;9.050;2023-02-12T18:59:12;4.27;;;3.30;;
13234;SDS011;6683;48.506;9.050;2023-02-12T19:02:15;3.87;;;3.27;;
13234;SDS011;6683;48.506;9.050;2023-02-12T19:05:18;4.37;;;3.67;;
13234;SDS011;6683;48.506;9.050;2023-02-12T19:08:21;12.10;;;6.67;;
13234;SDS011;6683;48.506;9.050;2023-02-12T19:11:23;6.70;;;5.67;;
13234;SDS011;6683;48.506;9.050;2023-02-12T19:14:28;10.33;;;7.40;;